createdAt,value
2023-02-25T00:02:02.787Z,100507.00
2023-02-25T00:04:31.320Z,100505.28
2023-02-25T00:06:59.658Z,100515.34
2023-02-25T00:09:28.003Z,100506.94
2023-02-25T00:11:57.527Z,100507.97
2023-02-25T00:14:25.753Z,100508.09
2023-02-25T00:16:56.831Z,100517.97
2023-02-25T00:19:26.477Z,100519.91
2023-02-25T00:21:56.034Z,100517.53
2023-02-25T00:24:24.401Z,100522.22
2023-02-25T00:26:52.587Z,100534.78
2023-02-25T00:29:20.913Z,100528.88
2023-02-25T00:31:49.617Z,100529.25
2023-02-25T00:34:18.770Z,100536.63
2023-02-25T00:36:47.173Z,100536.66
2023-02-25T00:39:15.730Z,100533.16
2023-02-25T00:41:44.444Z,100533.19
2023-02-25T00:44:13.983Z,100542.91
2023-02-25T00:46:42.284Z,100542.84
2023-02-25T00:49:12.147Z,100530.38
2023-02-25T00:51:41.657Z,100526.75
2023-02-25T00:54:09.842Z,100522.25
2023-02-25T00:56:38.096Z,100530.84
2023-02-25T00:59:06.322Z,100528.13
2023-02-25T01:01:34.989Z,100530.78
2023-02-25T01:04:03.391Z,100535.19
2023-02-25T01:06:37.307Z,100534.28
2023-02-25T01:09:08.903Z,100556.25
2023-02-25T01:11:38.043Z,100551.75
2023-02-25T01:14:08.871Z,100548.16
2023-02-25T01:16:38.079Z,100548.06
2023-02-25T01:19:10.375Z,100544.50
2023-02-25T01:21:43.376Z,100558.47
2023-02-25T01:24:24.471Z,100577.16
2023-02-25T01:26:55.167Z,100570.97
2023-02-25T01:29:27.288Z,100574.53
2023-02-25T01:32:01.062Z,100571.97
2023-02-25T01:34:31.000Z,100575.69
2023-02-25T01:37:00.086Z,100563.44
2023-02-25T01:39:29.489Z,100565.28
2023-02-25T01:41:59.416Z,100561.84
2023-02-25T01:44:39.039Z,100563.81
2023-02-25T01:47:08.146Z,100551.47
2023-02-25T01:49:41.012Z,100554.25
2023-02-25T01:52:24.632Z,100559.66
2023-02-25T01:54:58.327Z,100573.03
2023-02-25T01:57:27.514Z,100567.94
2023-02-25T01:59:56.790Z,100568.88
2023-02-25T02:02:29.097Z,100571.56
2023-02-25T02:04:57.609Z,100586.59
2023-02-25T02:07:25.855Z,100586.59
2023-02-25T02:10:00.785Z,100581.34
2023-02-25T02:12:40.506Z,100584.97
2023-02-25T02:15:13.713Z,100592.13
2023-02-25T02:17:47.950Z,100589.72
2023-02-25T02:20:34.037Z,100607.44
2023-02-25T02:24:01.144Z,100607.50
2023-02-25T02:27:09.074Z,100610.31
2023-02-25T02:30:05.926Z,100599.88
2023-02-25T02:32:37.938Z,100601.75
2023-02-25T02:35:21.155Z,100608.09
2023-02-25T02:38:05.646Z,100599.34
2023-02-25T02:40:52.553Z,100591.56
2023-02-25T02:43:36.840Z,100609.28
2023-02-25T02:46:24.157Z,100622.63
2023-02-25T02:49:20.926Z,100612.06
2023-02-25T02:51:49.501Z,100611.25
2023-02-25T02:54:19.691Z,100619.13
2023-02-25T02:56:54.114Z,100632.44
2023-02-25T02:59:27.272Z,100636.84
2023-02-25T03:02:11.840Z,100636.91
2023-02-25T03:04:44.175Z,100633.53
2023-02-25T03:07:15.241Z,100634.59
2023-02-25T03:10:00.254Z,100635.66
2023-02-25T03:12:29.464Z,100661.31
2023-02-25T03:14:58.342Z,100673.69
2023-02-25T03:17:40.988Z,100674.56
2023-02-25T03:20:21.872Z,100675.47
2023-02-25T03:22:53.045Z,100660.59
2023-02-25T03:25:57.348Z,100637.03
2023-02-25T03:28:27.546Z,100649.41
2023-02-25T03:31:04.361Z,100649.41
2023-02-25T03:33:48.704Z,100652.13
2023-02-25T03:36:36.040Z,100630.19
2023-02-25T03:39:20.447Z,100642.50
2023-02-25T03:41:54.734Z,100675.00
2023-02-25T03:44:31.551Z,100673.22
2023-02-25T03:47:00.981Z,100663.63
2023-02-25T03:49:36.194Z,100653.97
2023-02-25T03:52:12.804Z,100662.81
2023-02-25T03:54:41.123Z,100695.34
2023-02-25T03:57:09.426Z,100693.53
2023-02-25T03:59:37.884Z,100689.19
2023-02-25T04:02:07.003Z,100678.66
2023-02-25T04:04:35.929Z,100656.72
2023-02-25T04:07:05.267Z,100638.34
2023-02-25T04:09:33.495Z,100607.63
2023-02-25T04:12:01.731Z,100624.38
2023-02-25T04:14:29.941Z,100637.59
2023-02-25T04:16:58.183Z,100624.47
2023-02-25T04:19:26.543Z,100628.88
2023-02-25T04:21:54.802Z,100649.91
2023-02-25T04:24:23.028Z,100652.56
2023-02-25T04:26:51.289Z,100674.56
2023-02-25T04:29:19.482Z,100675.53
2023-02-25T04:31:48.271Z,100680.81
2023-02-25T04:34:16.476Z,100695.72
2023-02-25T04:36:47.921Z,100696.63
2023-02-25T04:39:17.817Z,100713.22
2023-02-25T04:41:46.725Z,100734.31
2023-02-25T04:44:14.943Z,100745.84
2023-02-25T04:46:44.271Z,100720.41
2023-02-25T04:49:12.699Z,100694.06
2023-02-25T04:51:40.975Z,100693.16
2023-02-25T04:54:09.523Z,100695.84
2023-02-25T04:56:38.976Z,100687.09
2023-02-25T04:59:08.409Z,100702.13
2023-02-25T05:01:36.713Z,100723.22
2023-02-25T05:04:05.789Z,100723.28
2023-02-25T05:06:34.387Z,100714.47
2023-02-25T05:09:03.079Z,100710.09
2023-02-25T05:11:31.318Z,100723.34
2023-02-25T05:13:59.606Z,100717.28
2023-02-25T05:16:28.061Z,100726.09
2023-02-25T05:18:56.798Z,100718.22
2023-02-25T05:21:27.735Z,100713.94
2023-02-25T05:23:55.959Z,100731.50
2023-02-25T05:26:26.064Z,100733.22
2023-02-25T05:28:56.800Z,100741.09
2023-02-25T05:31:25.871Z,100738.50
2023-02-25T05:33:54.655Z,100728.88
2023-02-25T05:36:25.915Z,100741.22
2023-02-25T05:38:56.939Z,100747.41
2023-02-25T05:41:25.464Z,100754.41
2023-02-25T05:43:53.707Z,100738.59
2023-02-25T05:46:23.288Z,100745.59
2023-02-25T05:48:51.736Z,100728.94
2023-02-25T05:51:23.269Z,100701.69
2023-02-25T05:53:52.921Z,100684.22
2023-02-25T05:56:24.026Z,100698.41
2023-02-25T05:58:52.689Z,100735.38
2023-02-25T06:01:23.822Z,100745.03
2023-02-25T06:03:59.186Z,100744.13
2023-02-25T06:06:29.724Z,100744.06
2023-02-25T06:08:58.763Z,100729.09
2023-02-25T06:11:29.433Z,100701.06
2023-02-25T06:13:59.421Z,100702.03
2023-02-25T06:16:32.979Z,100724.91
2023-02-25T06:19:02.633Z,100706.38
2023-02-25T06:21:32.095Z,100706.31
2023-02-25T06:24:04.799Z,100742.22
2023-02-25T06:26:33.921Z,100740.44
2023-02-25T06:29:02.211Z,100743.03
2023-02-25T06:31:30.637Z,100728.19
2023-02-25T06:33:58.868Z,100723.84
2023-02-25T06:36:27.364Z,100727.38
2023-02-25T06:38:55.947Z,100710.69
2023-02-25T06:41:24.868Z,100721.28
2023-02-25T06:43:53.239Z,100709.06
2023-02-25T06:46:27.918Z,100717.00
2023-02-25T06:48:56.530Z,100735.44
2023-02-25T06:51:26.616Z,100744.16
2023-02-25T06:53:54.942Z,100729.22
2023-02-25T06:56:23.758Z,100730.16
2023-02-25T06:58:53.992Z,100737.16
2023-02-25T07:01:22.448Z,100751.13
2023-02-25T07:03:51.635Z,100757.28
2023-02-25T07:06:20.596Z,100746.81
2023-02-25T07:08:49.053Z,100741.59
2023-02-25T07:11:19.974Z,100742.47
2023-02-25T07:13:49.823Z,100738.94
2023-02-25T07:16:19.074Z,100752.97
2023-02-25T07:18:48.205Z,100734.59
2023-02-25T07:21:16.952Z,100702.19
2023-02-25T07:23:45.280Z,100688.22
2023-02-25T07:26:14.915Z,100701.47
2023-02-25T07:28:43.728Z,100727.78
2023-02-25T07:31:18.107Z,100719.91
2023-02-25T07:33:46.912Z,100684.84
2023-02-25T07:36:16.037Z,100658.59
2023-02-25T07:38:45.290Z,100665.69
2023-02-25T07:41:15.561Z,100691.09
2023-02-25T07:43:44.138Z,100713.94
2023-02-25T07:46:14.223Z,100708.66
2023-02-25T07:48:43.006Z,100705.16
2023-02-25T07:51:14.629Z,100720.06
2023-02-25T07:53:42.879Z,100737.69
2023-02-25T07:56:12.052Z,100723.75
2023-02-25T07:58:40.666Z,100706.25
2023-02-25T08:01:13.380Z,100712.44
2023-02-25T08:03:41.675Z,100732.63
2023-02-25T08:06:10.019Z,100711.59
2023-02-25T08:08:38.747Z,100687.09
2023-02-25T08:11:09.067Z,100704.69
2023-02-25T08:13:38.150Z,100733.56
2023-02-25T08:16:08.497Z,100728.28
2023-02-25T08:18:37.691Z,100720.38
2023-02-25T08:21:06.640Z,100726.50
2023-02-25T08:23:34.984Z,100722.09
2023-02-25T08:26:03.262Z,100734.34
2023-02-25T08:28:37.114Z,100722.09
2023-02-25T08:31:08.242Z,100714.22
2023-02-25T08:33:36.582Z,100733.53
2023-02-25T08:36:27.549Z,100738.78
2023-02-25T08:38:58.331Z,100744.00
2023-02-25T08:41:28.478Z,100760.66
2023-02-25T08:43:59.371Z,100751.81
2023-02-25T08:46:29.510Z,100739.53
2023-02-25T08:48:59.356Z,100724.63
2023-02-25T08:51:39.392Z,100736.88
2023-02-25T08:54:14.518Z,100736.97
2023-02-25T08:56:45.925Z,100744.00
2023-02-25T08:59:16.934Z,100757.16
2023-02-25T09:01:45.659Z,100758.91
2023-02-25T09:04:19.699Z,100750.13
2023-02-25T09:06:49.616Z,100743.94
2023-02-25T09:09:20.313Z,100757.97
2023-02-25T09:11:50.193Z,100731.72
2023-02-25T09:14:18.934Z,100732.63
2023-02-25T09:16:47.451Z,100732.63
2023-02-25T09:19:18.774Z,100704.59
2023-02-25T09:21:51.478Z,100694.88
2023-02-25T09:24:19.784Z,100686.13
2023-02-25T09:26:49.113Z,100681.78
2023-02-25T09:29:17.396Z,100708.94
2023-02-25T09:31:45.800Z,100730.91
2023-02-25T09:34:16.094Z,100735.31
2023-02-25T09:36:44.376Z,100744.16
2023-02-25T09:39:13.459Z,100755.53
2023-02-25T09:41:55.255Z,100735.34
2023-02-25T09:44:38.334Z,100708.22
2023-02-25T09:47:30.139Z,100681.06
2023-02-25T09:50:15.857Z,100716.22
2023-02-25T09:52:48.213Z,100739.94
2023-02-25T09:55:23.983Z,100739.94
2023-02-25T09:58:04.600Z,100725.94
2023-02-25T10:00:38.406Z,100710.19
2023-02-25T10:03:41.668Z,100708.47
2023-02-25T10:06:18.601Z,100716.34
2023-02-25T10:08:59.338Z,100724.19
2023-02-25T10:12:10.818Z,100725.00
2023-02-25T10:15:09.440Z,100730.19
2023-02-25T10:18:05.245Z,100731.91
2023-02-25T10:20:56.133Z,100727.50
2023-02-25T10:23:42.363Z,100718.72
2023-02-25T10:26:25.449Z,100712.53
2023-02-25T10:29:03.094Z,100733.53
2023-02-25T10:31:33.042Z,100724.69
2023-02-25T10:34:26.794Z,100729.94
2023-02-25T10:36:57.943Z,100743.97
2023-02-25T10:39:27.553Z,100727.28
2023-02-25T10:41:56.215Z,100727.28
2023-02-25T10:44:24.444Z,100725.53
2023-02-25T10:47:07.988Z,100716.69
2023-02-25T10:49:39.155Z,100730.72
2023-02-25T10:52:18.271Z,100734.22
2023-02-25T10:54:52.273Z,100729.81
2023-02-25T10:57:27.521Z,100724.50
2023-02-25T11:00:07.630Z,100721.06
2023-02-25T11:02:43.913Z,100718.50
2023-02-25T11:05:50.545Z,100712.38
2023-02-25T11:08:37.798Z,100716.75
2023-02-25T11:11:14.940Z,100721.13
2023-02-25T11:13:43.178Z,100736.84
2023-02-25T11:16:14.681Z,100735.06
2023-02-25T11:18:43.338Z,100740.34
2023-02-25T11:21:17.111Z,100750.06
2023-02-25T11:23:45.230Z,100761.50
2023-02-25T11:26:38.849Z,100762.41
2023-02-25T11:29:14.169Z,100769.44
2023-02-25T11:31:44.341Z,100779.94
2023-02-25T11:34:25.595Z,100773.72
2023-02-25T11:36:54.717Z,100776.31
2023-02-25T11:39:27.611Z,100775.38
2023-02-25T11:41:58.286Z,100771.88
2023-02-25T11:44:45.332Z,100778.03
2023-02-25T11:47:34.509Z,100788.56
2023-02-25T11:50:30.425Z,100786.75
2023-02-25T11:53:14.375Z,100799.00
2023-02-25T11:56:20.357Z,100793.69
2023-02-25T11:59:38.001Z,100797.09
2023-02-25T12:02:21.440Z,100805.00
2023-02-25T12:05:14.013Z,100799.75
2023-02-25T12:08:12.411Z,100799.78
2023-02-25T12:11:11.925Z,100810.28
2023-02-25T12:13:51.354Z,100811.13
2023-02-25T12:16:34.733Z,100809.41
2023-02-25T12:19:39.720Z,100804.97
2023-02-25T12:22:29.148Z,100804.09
2023-02-25T12:25:18.738Z,100806.75
2023-02-25T12:28:05.429Z,100807.78
2023-02-25T12:31:18.226Z,100813.16
2023-02-25T12:34:17.585Z,100814.09
2023-02-25T12:37:19.468Z,100810.47
2023-02-25T12:39:56.518Z,100824.44
2023-02-25T12:42:38.848Z,100816.50
2023-02-25T12:45:34.866Z,100817.44
2023-02-25T12:48:45.033Z,100816.56
2023-02-25T12:51:22.869Z,100820.97
2023-02-25T12:53:55.497Z,100814.81
2023-02-25T12:56:34.571Z,100823.59
2023-02-25T12:59:29.156Z,100812.25
2023-02-25T13:02:27.059Z,100821.00
2023-02-25T13:05:19.364Z,100823.66
2023-02-25T13:08:22.610Z,100826.34
2023-02-25T13:11:00.004Z,100831.69
2023-02-25T13:14:01.786Z,100829.91
2023-02-25T13:16:33.133Z,100833.44
2023-02-25T13:19:16.686Z,100831.75
2023-02-25T13:22:08.484Z,100830.97
2023-02-25T13:25:11.656Z,100837.19
2023-02-25T13:28:33.973Z,100824.97
2023-02-25T13:31:27.955Z,100821.50
2023-02-25T13:34:34.744Z,100821.53
2023-02-25T13:37:18.331Z,100818.03
2023-02-25T13:39:46.659Z,100825.09
2023-02-25T13:42:33.361Z,100830.38
2023-02-25T13:45:29.277Z,100839.19
2023-02-25T13:48:31.269Z,100843.59
2023-02-25T13:51:20.210Z,100847.97
2023-02-25T13:54:21.587Z,100850.63
2023-02-25T13:57:10.748Z,100857.69
2023-02-25T13:59:58.236Z,100865.56
2023-02-25T14:02:44.533Z,100863.84
2023-02-25T14:05:31.120Z,100861.22
2023-02-25T14:08:02.459Z,100864.75
2023-02-25T14:10:41.795Z,100873.53
2023-02-25T14:13:43.620Z,100871.81
2023-02-25T14:16:30.056Z,100885.81
2023-02-25T14:19:16.948Z,100882.34
2023-02-25T14:22:12.249Z,100894.59
2023-02-25T14:24:47.588Z,100891.91
2023-02-25T14:27:37.518Z,100897.13
2023-02-25T14:30:31.866Z,100891.84
2023-02-25T14:33:23.280Z,100896.25
2023-02-25T14:36:14.350Z,100903.28
2023-02-25T14:39:11.957Z,100908.53
2023-02-25T14:41:53.673Z,100908.50
2023-02-25T14:44:51.216Z,100908.50
2023-02-25T14:47:27.214Z,100914.66
2023-02-25T14:50:24.631Z,100924.25
2023-02-25T14:53:07.802Z,100925.97
2023-02-25T14:56:21.202Z,100919.84
2023-02-25T14:59:07.505Z,100925.06
2023-02-25T15:01:52.927Z,100932.88
2023-02-25T15:04:39.676Z,100928.47
2023-02-25T15:07:20.589Z,100929.31
2023-02-25T15:10:56.201Z,100925.72
2023-02-25T15:14:02.672Z,100932.69
2023-02-25T15:16:49.201Z,100930.84
2023-02-25T15:19:28.996Z,100932.53
2023-02-25T15:22:15.322Z,100933.31
2023-02-25T15:24:44.096Z,100941.16
2023-02-25T15:27:36.756Z,100945.53
2023-02-25T15:30:14.037Z,100950.81
2023-02-25T15:32:56.340Z,100957.81
2023-02-25T15:35:44.672Z,100956.09
2023-02-25T15:38:39.700Z,100958.69
2023-02-25T15:41:30.827Z,100968.34
2023-02-25T15:44:13.902Z,100972.66
2023-02-25T15:46:47.737Z,100975.19
2023-02-25T15:49:33.979Z,100968.13
2023-02-25T15:52:07.347Z,100972.47
2023-02-25T15:54:48.172Z,100982.16
2023-02-25T15:57:25.622Z,100980.38
2023-02-25T15:59:58.814Z,100989.97
2023-02-25T16:02:29.959Z,100987.28
2023-02-25T16:05:14.357Z,100993.38
2023-02-25T16:07:50.172Z,100994.19
2023-02-25T16:10:44.721Z,101001.16
2023-02-25T16:13:20.711Z,101001.94
2023-02-25T16:15:53.718Z,101007.22
2023-02-25T16:18:51.276Z,101005.53
2023-02-25T16:21:22.795Z,101016.03
2023-02-25T16:23:51.497Z,101020.34
2023-02-25T16:26:32.748Z,101022.91
2023-02-25T16:29:23.692Z,101026.38
2023-02-25T16:31:54.861Z,101025.41
2023-02-25T16:34:40.846Z,101036.66
2023-02-25T16:37:30.032Z,101036.50
2023-02-25T16:39:59.361Z,101045.25
2023-02-25T16:42:28.016Z,101041.72
2023-02-25T16:45:03.103Z,101039.09
2023-02-25T16:47:34.791Z,101043.44
2023-02-25T16:50:12.660Z,101045.16
2023-02-25T16:52:49.628Z,101052.09
2023-02-25T16:55:25.211Z,101059.06
2023-02-25T16:58:08.922Z,101063.34
2023-02-25T17:00:37.359Z,101065.97
2023-02-25T17:03:11.839Z,101066.91
2023-02-25T17:05:40.250Z,101066.03
2023-02-25T17:08:16.679Z,101069.44
2023-02-25T17:10:50.707Z,101080.78
2023-02-25T17:13:30.769Z,101083.41
2023-02-25T17:16:04.712Z,101084.19
2023-02-25T17:18:40.665Z,101089.41
2023-02-25T17:21:37.498Z,101084.94
2023-02-25T17:24:14.737Z,101085.75
2023-02-25T17:26:49.678Z,101088.44
2023-02-25T17:29:19.643Z,101099.09
2023-02-25T17:31:58.826Z,101092.03
2023-02-25T17:34:30.612Z,101094.59
2023-02-25T17:37:03.710Z,101109.41
2023-02-25T17:39:32.326Z,101104.13
2023-02-25T17:42:00.640Z,101105.84
2023-02-25T17:44:49.556Z,101107.56
2023-02-25T17:47:24.335Z,101102.34
2023-02-25T17:49:53.334Z,101101.38
2023-02-25T17:52:21.559Z,101100.25
2023-02-25T17:55:08.920Z,101092.13
2023-02-25T17:57:43.476Z,101093.72
2023-02-25T18:00:33.238Z,101094.31
2023-02-25T18:03:23.002Z,101095.94
2023-02-25T18:05:56.526Z,101092.44
2023-02-25T18:08:27.140Z,101098.53
2023-02-25T18:11:25.358Z,101086.16
2023-02-25T18:13:54.031Z,101087.91
2023-02-25T18:16:30.903Z,101097.50
2023-02-25T18:19:00.798Z,101094.78
2023-02-25T18:21:29.796Z,101094.75
2023-02-25T18:23:58.554Z,101105.94
2023-02-25T18:26:27.731Z,101105.81
2023-02-25T18:28:58.527Z,101111.03
2023-02-25T18:31:27.446Z,101115.34
2023-02-25T18:33:55.978Z,101115.28
2023-02-25T18:36:27.339Z,101109.81
2023-02-25T18:39:01.552Z,101114.16
2023-02-25T18:41:30.005Z,101114.94
2023-02-25T18:43:58.187Z,101106.28
2023-02-25T18:46:27.000Z,101114.38
2023-02-25T18:48:55.399Z,101109.97
2023-02-25T18:51:23.976Z,101112.47
2023-02-25T18:53:54.549Z,101114.09
2023-02-25T18:56:23.188Z,101107.13
2023-02-25T18:58:55.458Z,101107.84
2023-02-25T19:01:27.775Z,101106.72
2023-02-25T19:04:00.719Z,101115.44
2023-02-25T19:06:31.683Z,101126.13
2023-02-25T19:08:59.913Z,101121.69
2023-02-25T19:11:34.458Z,101127.78
2023-02-25T19:14:03.784Z,101117.09
2023-02-25T19:16:32.129Z,101109.97
2023-02-25T19:19:00.335Z,101120.31
2023-02-25T19:21:29.111Z,101119.44
2023-02-25T19:23:57.421Z,101115.13
2023-02-25T19:26:26.682Z,101115.25
2023-02-25T19:28:55.174Z,101111.13
2023-02-25T19:31:23.427Z,101111.31
2023-02-25T19:33:51.697Z,101110.53
2023-02-25T19:36:20.015Z,101109.63
2023-02-25T19:38:48.226Z,101110.56
2023-02-25T19:41:16.455Z,101102.59
2023-02-25T19:43:44.762Z,101101.78
2023-02-25T19:46:13.186Z,101103.47
2023-02-25T19:48:41.402Z,101093.78
2023-02-25T19:51:10.897Z,101097.28
2023-02-25T19:53:39.431Z,101082.97
2023-02-25T19:56:08.807Z,101075.81
2023-02-25T19:58:37.052Z,101071.31
2023-02-25T20:01:08.182Z,101080.84
2023-02-25T20:03:39.340Z,101091.19
2023-02-25T20:06:13.516Z,101091.03
2023-02-25T20:08:42.171Z,101093.50
2023-02-25T20:11:11.651Z,101100.41
2023-02-25T20:13:40.062Z,101082.75
2023-02-25T20:16:09.956Z,101074.63
2023-02-25T20:18:38.621Z,101070.03
2023-02-25T20:21:07.472Z,101054.97
2023-02-25T20:23:35.736Z,101060.63
2023-02-25T20:26:08.919Z,101059.81
2023-02-25T20:28:37.845Z,101064.38
2023-02-25T20:31:12.594Z,101066.72
2023-02-25T20:33:41.780Z,101060.81
2023-02-25T20:36:28.570Z,101053.75
2023-02-25T20:39:16.380Z,101060.16
2023-02-25T20:41:46.672Z,101056.00
2023-02-25T20:44:15.850Z,101051.47
2023-02-25T20:46:45.534Z,101048.34
2023-02-25T20:49:17.198Z,101043.63
2023-02-25T20:51:50.193Z,101035.53
2023-02-25T20:54:19.701Z,101026.41
2023-02-25T20:56:49.024Z,101022.41
2023-02-25T20:59:17.641Z,101030.63
2023-02-25T21:01:46.233Z,101033.41
2023-02-25T21:04:14.548Z,101024.25
2023-02-25T21:06:42.862Z,101009.97
2023-02-25T21:09:11.201Z,101005.50
2023-02-25T21:11:39.562Z,100992.00
2023-02-25T21:14:11.067Z,100976.78
2023-02-25T21:16:40.211Z,100977.44
2023-02-25T21:19:09.371Z,100988.75
2023-02-25T21:21:38.294Z,100981.38
2023-02-25T21:24:08.360Z,100983.84
2023-02-25T21:26:40.074Z,100968.47
2023-02-25T21:29:09.640Z,100959.50
2023-02-25T21:31:39.080Z,100957.44
2023-02-25T21:34:09.986Z,100952.25
2023-02-25T21:36:38.925Z,100951.16
2023-02-25T21:39:07.839Z,100962.88
2023-02-25T21:41:37.437Z,100952.94
2023-02-25T21:44:05.992Z,100950.69
2023-02-25T21:46:34.292Z,100931.75
2023-02-25T21:49:02.519Z,100939.13
2023-02-25T21:51:31.195Z,100949.97
2023-02-25T21:54:01.492Z,100965.94
2023-02-25T21:56:31.714Z,100962.84
2023-02-25T21:59:03.113Z,100964.56
2023-02-25T22:01:36.714Z,100978.25
2023-02-25T22:04:06.068Z,100981.03
2023-02-25T22:06:34.552Z,100986.03
2023-02-25T22:09:02.924Z,100988.53
2023-02-25T22:11:33.989Z,100986.91
2023-02-25T22:14:04.644Z,100987.69
2023-02-25T22:16:33.680Z,100990.63
2023-02-25T22:19:01.898Z,100989.19
2023-02-25T22:21:32.566Z,100980.03
2023-02-25T22:24:03.290Z,100983.28
2023-02-25T22:26:34.222Z,100986.59
2023-02-25T22:29:06.781Z,101001.56
2023-02-25T22:31:36.013Z,101002.97
2023-02-25T22:34:04.631Z,101000.25
2023-02-25T22:36:33.089Z,100989.38
2023-02-25T22:39:04.689Z,100986.38
2023-02-25T22:41:32.959Z,100985.78
2023-02-25T22:44:02.149Z,100976.06
2023-02-25T22:46:36.927Z,100974.13
2023-02-25T22:49:06.830Z,100966.13
2023-02-25T22:51:45.870Z,100972.88
2023-02-25T22:54:19.612Z,100971.81
2023-02-25T22:56:50.489Z,100978.72
2023-02-25T22:59:19.066Z,100984.16
2023-02-25T23:01:47.488Z,100981.88
2023-02-25T23:04:15.954Z,100983.97
2023-02-25T23:06:45.134Z,100985.38
2023-02-25T23:09:15.614Z,100982.81
2023-02-25T23:11:45.084Z,100977.28
2023-02-25T23:14:15.132Z,100986.59
2023-02-25T23:16:47.918Z,100993.84
2023-02-25T23:19:19.132Z,100998.09
2023-02-25T23:21:48.342Z,101000.94
2023-02-25T23:24:20.212Z,101004.81
2023-02-25T23:26:51.978Z,101000.81
2023-02-25T23:29:20.450Z,101005.25
2023-02-25T23:31:50.078Z,101009.47
2023-02-25T23:34:25.673Z,101008.28
2023-02-25T23:36:57.628Z,101005.78
2023-02-25T23:39:26.536Z,101007.81
2023-02-25T23:41:55.355Z,101000.47
2023-02-25T23:44:23.616Z,100995.47
2023-02-25T23:46:52.032Z,101000.97
2023-02-25T23:49:20.464Z,100999.44
2023-02-25T23:51:49.885Z,100981.75
2023-02-25T23:54:21.939Z,100985.06
2023-02-25T23:56:51.195Z,100984.97
2023-02-25T23:59:19.512Z,100993.06
